createdAt,value
2019-02-11T00:01:21.146Z,68.30
2019-02-11T00:03:49.645Z,66.03
2019-02-11T00:06:18.978Z,67.63
2019-02-11T00:08:47.375Z,60.67
2019-02-11T00:11:16.681Z,51.67
2019-02-11T00:13:45.982Z,54.23
2019-02-11T00:16:15.310Z,57.43
2019-02-11T00:18:44.617Z,50.07
2019-02-11T00:21:13.939Z,50.53
2019-02-11T00:23:43.266Z,56.33
2019-02-11T00:26:12.577Z,53.03
2019-02-11T00:28:41.082Z,52.00
2019-02-11T00:31:26.391Z,50.43
2019-02-11T00:33:55.037Z,56.23
2019-02-11T00:36:24.360Z,51.27
2019-02-11T00:38:53.676Z,53.50
2019-02-11T00:41:22.991Z,53.67
2019-02-11T00:43:52.295Z,56.63
2019-02-11T00:46:20.799Z,62.87
2019-02-11T00:48:49.309Z,64.77
2019-02-11T00:51:18.782Z,65.53
2019-02-11T00:53:48.084Z,65.13
2019-02-11T00:56:17.403Z,62.13
2019-02-11T00:58:46.703Z,63.27
2019-02-11T01:01:16.015Z,66.83
2019-02-11T01:03:45.318Z,68.90
2019-02-11T01:06:13.930Z,69.73
2019-02-11T01:08:42.329Z,79.20
2019-02-11T01:11:10.846Z,74.93
2019-02-11T01:13:40.152Z,74.13
2019-02-11T01:16:09.457Z,78.07
2019-02-11T01:18:38.763Z,73.27
2019-02-11T01:21:08.079Z,72.93
2019-02-11T01:23:37.398Z,73.63
2019-02-11T01:26:06.696Z,73.57
2019-02-11T01:28:35.221Z,79.27
2019-02-11T01:31:03.727Z,76.77
2019-02-11T01:33:33.058Z,74.90
2019-02-11T01:36:02.369Z,72.97
2019-02-11T01:38:31.666Z,76.50
2019-02-11T01:41:00.979Z,82.10
2019-02-11T01:43:35.951Z,76.83
2019-02-11T01:46:19.519Z,79.37
2019-02-11T01:48:48.839Z,75.60
2019-02-11T01:51:18.164Z,72.17
2019-02-11T01:53:47.478Z,68.60
2019-02-11T01:56:15.992Z,69.83
2019-02-11T01:58:45.260Z,72.03
2019-02-11T02:01:14.595Z,69.67
2019-02-11T02:03:43.902Z,72.07
2019-02-11T02:06:13.202Z,68.27
2019-02-11T02:08:42.611Z,77.33
2019-02-11T02:11:11.909Z,73.67
2019-02-11T02:13:44.869Z,69.10
2019-02-11T02:16:30.434Z,67.30
2019-02-11T02:18:59.749Z,65.00
2019-02-11T02:21:28.248Z,70.87
2019-02-11T02:23:57.567Z,67.03
2019-02-11T02:26:26.878Z,65.63
2019-02-11T02:28:56.195Z,58.10
2019-02-11T02:31:25.517Z,61.73
2019-02-11T02:33:54.819Z,61.80
2019-02-11T02:36:24.126Z,56.43
2019-02-11T02:38:52.628Z,52.50
2019-02-11T02:41:21.933Z,54.87
2019-02-11T02:43:55.667Z,55.83
2019-02-11T02:46:40.439Z,54.87
2019-02-11T02:49:09.754Z,54.50
2019-02-11T02:51:38.267Z,60.33
2019-02-11T02:54:07.582Z,68.77
2019-02-11T02:56:36.887Z,63.23
2019-02-11T02:59:06.189Z,69.87
2019-02-11T03:01:35.519Z,69.23
2019-02-11T03:04:04.836Z,63.57
2019-02-11T03:06:34.143Z,70.40
2019-02-11T03:11:46.831Z,69.47
2019-02-11T03:14:16.303Z,61.57
2019-02-11T03:16:45.622Z,62.93
2019-02-11T03:19:14.946Z,55.03
2019-02-11T03:21:44.259Z,65.37
2019-02-11T03:24:13.569Z,56.60
2019-02-11T03:26:42.878Z,55.40
2019-02-11T03:29:11.383Z,56.50
2019-02-11T03:31:40.720Z,54.07
2019-02-11T03:34:10.031Z,49.43
2019-02-11T03:36:39.341Z,59.50
2019-02-11T03:39:08.658Z,55.97
2019-02-11T03:41:37.974Z,62.83
2019-02-11T03:44:14.923Z,62.77
2019-02-11T03:46:56.539Z,62.73
2019-02-11T03:49:25.856Z,61.07
2019-02-11T03:51:54.261Z,60.13
2019-02-11T03:54:22.666Z,63.23
2019-02-11T03:59:54.526Z,56.90
2019-02-11T04:02:23.143Z,59.67
2019-02-11T04:04:52.458Z,57.10
2019-02-11T04:07:21.777Z,57.47
2019-02-11T04:09:51.083Z,56.50
2019-02-11T04:12:20.406Z,62.87
2019-02-11T04:14:49.720Z,66.50
2019-02-11T04:17:19.031Z,58.30
2019-02-11T04:19:47.454Z,62.57
2019-02-11T04:22:15.877Z,76.63
2019-02-11T04:24:44.381Z,61.53
2019-02-11T04:27:13.694Z,51.47
2019-02-11T04:29:42.993Z,57.20
2019-02-11T04:32:12.303Z,54.93
2019-02-11T04:34:41.619Z,50.97
2019-02-11T04:37:10.132Z,42.87
2019-02-11T04:39:39.531Z,42.37
2019-02-11T04:42:08.842Z,53.40
2019-02-11T04:44:38.149Z,47.90
2019-02-11T04:47:07.454Z,49.07
2019-02-11T04:49:36.060Z,50.60
2019-02-11T04:52:05.371Z,55.93
2019-02-11T04:54:34.668Z,54.20
2019-02-11T04:57:04.036Z,55.27
2019-02-11T04:59:33.405Z,54.93
2019-02-11T05:02:02.702Z,55.83
2019-02-11T05:04:32.008Z,58.70
2019-02-11T05:07:01.335Z,57.73
2019-02-11T05:09:29.855Z,53.53
2019-02-11T05:11:58.368Z,49.93
2019-02-11T05:14:27.689Z,49.63
2019-02-11T05:16:57.006Z,57.17
2019-02-11T05:19:26.311Z,56.97
2019-02-11T05:24:57.229Z,55.27
2019-02-11T05:27:26.537Z,46.50
2019-02-11T05:29:54.942Z,54.10
2019-02-11T05:32:35.706Z,50.77
2019-02-11T05:35:04.859Z,49.40
2019-02-11T05:37:34.426Z,49.57
2019-02-11T05:42:45.800Z,53.13
2019-02-11T05:45:15.115Z,56.00
2019-02-11T05:47:44.420Z,53.70
2019-02-11T05:50:13.750Z,59.10
2019-02-11T05:52:42.360Z,54.47
2019-02-11T05:58:13.171Z,48.20
2019-02-11T06:00:41.687Z,47.70
2019-02-11T06:03:11.008Z,46.63
2019-02-11T06:05:40.342Z,42.40
2019-02-11T06:08:09.647Z,44.93
2019-02-11T06:10:38.968Z,50.50
2019-02-11T06:13:08.294Z,47.03
2019-02-11T06:15:37.604Z,50.53
2019-02-11T06:18:06.927Z,56.20
2019-02-11T06:20:35.350Z,51.50
2019-02-11T06:23:03.879Z,52.80
2019-02-11T06:28:34.991Z,51.77
2019-02-11T06:31:03.595Z,66.00
2019-02-11T06:33:32.913Z,65.30
2019-02-11T06:36:11.436Z,63.20
2019-02-11T06:38:51.493Z,60.37
2019-02-11T06:41:20.797Z,60.20
2019-02-11T06:43:50.120Z,63.80
2019-02-11T06:46:19.413Z,65.77
2019-02-11T06:48:48.716Z,67.03
2019-02-11T06:51:18.039Z,76.03
2019-02-11T06:53:46.447Z,79.63
2019-02-11T06:56:15.122Z,81.00
2019-02-11T06:58:44.436Z,82.83
2019-02-11T07:01:13.754Z,72.40
2019-02-11T07:03:43.073Z,75.97
2019-02-11T07:06:12.410Z,67.00
2019-02-11T07:08:41.722Z,58.30
2019-02-11T07:11:11.032Z,56.43
2019-02-11T07:13:40.399Z,56.77
2019-02-11T07:16:08.910Z,56.23
2019-02-11T07:18:37.430Z,50.07
2019-02-11T07:21:06.744Z,53.50
2019-02-11T07:23:36.079Z,50.30
2019-02-11T07:26:05.399Z,48.63
2019-02-11T07:28:34.717Z,52.63
2019-02-11T07:31:04.021Z,63.53
2019-02-11T07:33:33.360Z,70.87
2019-02-11T07:36:02.658Z,66.43
2019-02-11T07:38:31.966Z,65.50
2019-02-11T07:41:00.479Z,75.27
2019-02-11T07:43:32.528Z,65.10
2019-02-11T07:46:21.301Z,75.83
2019-02-11T07:48:49.903Z,67.93
2019-02-11T07:51:19.211Z,75.17
2019-02-11T07:53:48.526Z,80.23
2019-02-11T07:56:17.843Z,87.53
2019-02-11T07:58:47.165Z,83.87
2019-02-11T08:01:16.485Z,82.07
2019-02-11T08:03:44.995Z,90.17
2019-02-11T08:06:14.320Z,109.80
2019-02-11T08:08:43.631Z,105.87
2019-02-11T08:11:12.527Z,113.50
2019-02-11T08:13:40.956Z,110.47
2019-02-11T08:16:09.468Z,116.57
2019-02-11T08:18:38.787Z,106.60
2019-02-11T08:21:08.124Z,104.60
2019-02-11T08:23:36.628Z,119.17
2019-02-11T08:26:06.268Z,124.90
2019-02-11T08:28:55.251Z,120.03
2019-02-11T08:31:23.868Z,127.23
2019-02-11T08:33:52.375Z,144.53
2019-02-11T08:36:20.903Z,167.17
2019-02-11T08:38:50.210Z,174.90
2019-02-11T08:41:19.524Z,163.67
2019-02-11T08:43:48.833Z,183.10
2019-02-11T08:46:18.154Z,192.77
2019-02-11T08:48:46.758Z,143.60
2019-02-11T08:51:16.074Z,111.33
2019-02-11T08:53:44.600Z,94.30
2019-02-11T08:56:13.023Z,87.97
2019-02-11T08:58:42.340Z,86.77
2019-02-11T09:01:11.671Z,86.33
2019-02-11T09:03:40.972Z,92.67
2019-02-11T09:06:10.299Z,103.47
2019-02-11T09:08:39.598Z,108.17
2019-02-11T09:11:08.111Z,111.70
2019-02-11T09:13:36.529Z,97.87
2019-02-11T09:16:06.061Z,89.33
2019-02-11T09:18:35.370Z,80.67
2019-02-11T09:21:04.004Z,78.37
2019-02-11T09:23:33.335Z,82.73
2019-02-11T09:26:02.653Z,78.07
2019-02-11T09:28:31.978Z,81.70
2019-02-11T09:31:01.313Z,83.77
2019-02-11T09:33:30.637Z,74.73
2019-02-11T09:35:59.979Z,83.93
2019-02-11T09:38:29.306Z,100.17
2019-02-11T09:40:57.744Z,97.60
2019-02-11T09:43:27.066Z,85.93
2019-02-11T09:46:03.700Z,83.10
2019-02-11T09:48:45.897Z,78.00
2019-02-11T09:51:15.242Z,73.40
2019-02-11T09:53:44.554Z,69.87
2019-02-11T09:56:13.853Z,75.87
2019-02-11T09:58:42.358Z,75.33
2019-02-11T10:01:11.675Z,74.07
2019-02-11T10:03:41.009Z,73.73
2019-02-11T10:06:10.322Z,77.93
2019-02-11T10:08:38.828Z,92.03
2019-02-11T10:11:07.351Z,88.43
2019-02-11T10:13:36.672Z,104.60
2019-02-11T10:16:12.299Z,108.03
2019-02-11T10:18:55.219Z,91.60
2019-02-11T10:21:24.532Z,105.23
2019-02-11T10:23:53.866Z,99.57
2019-02-11T10:26:23.193Z,103.77
2019-02-11T10:28:52.511Z,101.70
2019-02-11T10:31:20.920Z,97.67
2019-02-11T10:33:50.354Z,119.53
2019-02-11T10:36:19.673Z,108.77
2019-02-11T10:38:49.094Z,93.93
2019-02-11T10:41:18.562Z,87.80
2019-02-11T10:43:47.951Z,84.47
2019-02-11T10:46:21.072Z,90.67
2019-02-11T10:49:06.584Z,95.40
2019-02-11T10:51:35.889Z,95.97
2019-02-11T10:54:05.394Z,87.60
2019-02-11T10:56:34.037Z,91.80
2019-02-11T10:59:03.370Z,82.53
2019-02-11T11:01:32.673Z,74.60
2019-02-11T11:04:01.194Z,103.33
2019-02-11T11:06:30.558Z,106.63
2019-02-11T11:09:00.120Z,97.97
2019-02-11T11:11:29.436Z,105.03
2019-02-11T11:13:58.841Z,103.60
2019-02-11T11:16:29.682Z,87.00
2019-02-11T11:19:17.360Z,90.40
2019-02-11T11:21:46.873Z,92.63
2019-02-11T11:24:15.390Z,90.33
2019-02-11T11:26:43.911Z,82.43
2019-02-11T11:29:13.237Z,71.57
2019-02-11T11:31:42.752Z,73.97
2019-02-11T11:37:14.663Z,73.03
2019-02-11T11:39:44.027Z,72.50
2019-02-11T11:42:13.542Z,70.23
2019-02-11T11:44:42.859Z,57.20
2019-02-11T11:47:12.287Z,53.40
2019-02-11T11:49:41.614Z,50.67
2019-02-11T11:52:10.935Z,57.03
2019-02-11T11:54:40.276Z,47.33
2019-02-11T11:57:09.711Z,43.70
2019-02-11T11:59:39.025Z,43.60
2019-02-11T12:02:07.843Z,40.27
2019-02-11T12:04:36.453Z,38.97
2019-02-11T12:07:05.774Z,44.37
2019-02-11T12:09:35.141Z,40.10
2019-02-11T12:12:04.714Z,43.40
2019-02-11T12:14:34.027Z,44.33
2019-02-11T12:17:03.679Z,45.60
2019-02-11T12:19:52.585Z,49.10
2019-02-11T12:22:21.935Z,50.93
2019-02-11T12:24:51.248Z,47.60
2019-02-11T12:27:20.566Z,42.27
2019-02-11T12:29:49.890Z,45.47
2019-02-11T12:32:18.415Z,45.80
2019-02-11T12:34:47.038Z,48.47
2019-02-11T12:37:16.402Z,45.03
2019-02-11T12:39:45.708Z,45.03
2019-02-11T12:42:15.123Z,51.37
2019-02-11T12:44:44.497Z,44.70
2019-02-11T12:47:15.258Z,58.20
2019-02-11T12:50:03.871Z,48.90
2019-02-11T12:52:32.493Z,52.47
2019-02-11T12:55:01.807Z,49.00
2019-02-11T12:57:31.137Z,45.90
2019-02-11T12:59:59.647Z,41.97
2019-02-11T13:02:28.987Z,40.57
2019-02-11T13:04:58.310Z,44.03
2019-02-11T13:07:27.640Z,45.03
2019-02-11T13:09:56.973Z,39.83
2019-02-11T13:12:26.276Z,38.27
2019-02-11T13:14:55.590Z,36.83
2019-02-11T13:17:34.076Z,34.80
2019-02-11T13:20:14.273Z,40.03
2019-02-11T13:22:42.877Z,40.83
2019-02-11T13:28:14.210Z,45.73
2019-02-11T13:30:42.614Z,48.83
2019-02-11T13:33:11.525Z,49.67
2019-02-11T13:35:40.975Z,47.67
2019-02-11T13:38:10.305Z,52.87
2019-02-11T13:40:39.634Z,54.27
2019-02-11T13:43:09.072Z,53.90
2019-02-11T13:45:38.374Z,53.17
2019-02-11T13:48:07.708Z,49.87
2019-02-11T13:50:36.351Z,50.73
2019-02-11T13:53:05.755Z,47.47
2019-02-11T13:55:35.267Z,46.23
2019-02-11T14:01:09.122Z,63.80
2019-02-11T14:03:38.571Z,58.40
2019-02-11T14:06:08.008Z,62.13
2019-02-11T14:08:37.351Z,71.37
2019-02-11T14:11:06.171Z,60.20
2019-02-11T14:13:35.574Z,68.50
2019-02-11T14:16:04.916Z,76.10
2019-02-11T14:18:34.295Z,55.40
2019-02-11T14:24:06.617Z,29.57
2019-02-11T14:26:35.931Z,25.20
2019-02-11T14:29:05.343Z,24.70
2019-02-11T14:34:37.596Z,29.80
2019-02-11T14:37:06.907Z,29.13
2019-02-11T14:39:35.534Z,40.57
2019-02-11T14:45:10.727Z,29.97
2019-02-11T14:47:44.545Z,31.63
2019-02-11T14:53:37.917Z,31.60
2019-02-11T14:56:07.248Z,29.20
2019-02-11T14:58:36.674Z,27.40
2019-02-11T15:01:05.994Z,28.97
2019-02-11T15:03:35.326Z,25.00
2019-02-11T15:06:04.695Z,27.97
2019-02-11T15:08:34.057Z,19.77
2019-02-11T15:11:03.399Z,23.40
2019-02-11T15:13:32.026Z,23.33
2019-02-11T15:16:02.822Z,31.70
2019-02-11T15:18:34.410Z,46.00
2019-02-11T15:21:21.269Z,64.53
2019-02-11T15:23:50.600Z,68.10
2019-02-11T15:26:19.918Z,69.50
2019-02-11T15:28:49.242Z,65.53
2019-02-11T15:31:38.398Z,59.80
2019-02-11T15:34:07.690Z,72.37
2019-02-11T15:36:37.076Z,75.90
2019-02-11T15:39:06.397Z,73.63
2019-02-11T15:41:35.717Z,71.17
2019-02-11T15:44:05.038Z,75.47
2019-02-11T15:46:34.365Z,73.70
2019-02-11T15:49:03.672Z,77.63
2019-02-11T15:51:32.999Z,92.87
2019-02-11T15:54:01.512Z,92.70
2019-02-11T15:56:30.846Z,93.70
2019-02-11T15:59:00.200Z,87.20
2019-02-11T16:01:29.545Z,95.90
2019-02-11T16:03:59.961Z,87.37
2019-02-11T16:06:48.093Z,86.83
2019-02-11T16:09:17.440Z,90.10
2019-02-11T16:11:46.761Z,75.57
2019-02-11T16:14:16.075Z,93.87
2019-02-11T16:16:45.743Z,90.37
2019-02-11T16:19:14.616Z,105.47
2019-02-11T16:21:43.933Z,116.93
2019-02-11T16:24:13.251Z,125.77
2019-02-11T16:26:42.605Z,99.33
2019-02-11T16:29:11.930Z,123.83
2019-02-11T16:31:41.246Z,122.33
2019-02-11T16:34:10.577Z,126.97
2019-02-11T16:36:39.911Z,118.70
2019-02-11T16:39:09.231Z,116.93
2019-02-11T16:41:38.565Z,101.57
2019-02-11T16:44:07.907Z,83.37
2019-02-11T16:46:36.526Z,72.87
2019-02-11T16:49:05.876Z,67.20
2019-02-11T16:51:35.212Z,65.30
2019-02-11T16:54:05.620Z,66.43
2019-02-11T16:56:53.864Z,58.37
2019-02-11T16:59:23.208Z,55.27
2019-02-11T17:01:52.494Z,65.73
2019-02-11T17:04:21.819Z,91.27
2019-02-11T17:06:51.126Z,88.20
2019-02-11T17:09:20.444Z,106.97
2019-02-11T17:11:49.672Z,104.57
2019-02-11T17:14:18.477Z,52.00
2019-02-11T17:19:49.984Z,41.40
2019-02-11T17:22:19.296Z,30.17
2019-02-11T17:24:47.923Z,33.73
2019-02-11T17:27:17.253Z,29.43
2019-02-11T17:29:46.596Z,28.43
2019-02-11T17:32:15.910Z,32.47
2019-02-11T17:34:45.315Z,28.20
2019-02-11T17:37:14.644Z,32.10
2019-02-11T17:39:43.959Z,27.63
2019-02-11T17:42:13.300Z,30.43
2019-02-11T17:44:42.605Z,23.60
2019-02-11T17:47:11.035Z,26.17
2019-02-11T17:49:40.367Z,27.33
2019-02-11T17:55:06.566Z,25.23
2019-02-11T17:57:35.285Z,24.67
2019-02-11T18:00:06.345Z,26.03
2019-02-11T18:02:35.656Z,26.70
2019-02-11T18:05:05.167Z,25.67
2019-02-11T18:07:34.495Z,23.17
2019-02-11T18:10:04.374Z,22.90
2019-02-11T18:12:33.001Z,27.37
2019-02-11T18:15:01.910Z,22.60
2019-02-11T18:17:31.237Z,19.87
2019-02-11T18:20:00.632Z,25.57
2019-02-11T18:22:30.074Z,21.63
2019-02-11T18:24:59.432Z,21.03
2019-02-11T18:27:28.885Z,21.70
2019-02-11T18:29:58.194Z,20.97
2019-02-11T18:32:27.620Z,20.23
2019-02-11T18:34:56.952Z,21.33
2019-02-11T18:37:26.253Z,19.77
2019-02-11T18:39:54.671Z,22.70
2019-02-11T18:42:23.493Z,22.27
2019-02-11T18:44:52.820Z,23.53
2019-02-11T18:47:22.149Z,22.17
2019-02-11T18:49:51.466Z,19.63
2019-02-11T18:52:20.793Z,21.13
2019-02-11T18:54:50.103Z,19.70
2019-02-11T18:57:19.473Z,22.90
2019-02-11T18:59:48.803Z,18.33
2019-02-11T19:02:18.125Z,16.20
2019-02-11T19:04:47.445Z,18.70
2019-02-11T19:07:16.971Z,17.63
2019-02-11T19:09:45.777Z,15.87
2019-02-11T19:12:15.204Z,19.83
2019-02-11T19:14:43.830Z,18.33
2019-02-11T19:17:13.150Z,18.17
2019-02-11T19:19:43.422Z,19.60
2019-02-11T19:22:31.690Z,17.53
2019-02-11T19:25:01.021Z,19.37
2019-02-11T19:27:30.330Z,15.97
2019-02-11T19:29:59.647Z,12.37
2019-02-11T19:32:29.071Z,15.40
2019-02-11T19:34:58.037Z,11.57
2019-02-11T19:37:26.557Z,12.50
2019-02-11T19:39:55.169Z,10.40
2019-02-11T19:42:24.488Z,10.07
2019-02-11T19:44:53.823Z,10.60
2019-02-11T19:47:23.146Z,10.73
2019-02-11T19:49:52.146Z,11.20
2019-02-11T19:52:40.882Z,8.67
2019-02-11T19:57:53.526Z,12.37
2019-02-11T20:00:22.979Z,10.60
2019-02-11T20:02:52.272Z,23.83
2019-02-11T20:05:21.646Z,13.37
2019-02-11T20:07:50.998Z,10.43
2019-02-11T20:10:19.924Z,10.93
2019-02-11T20:12:48.448Z,12.83
2019-02-11T20:15:19.509Z,13.40
2019-02-11T20:20:50.770Z,11.57
2019-02-11T20:23:20.132Z,10.03
2019-02-11T20:25:49.468Z,10.43
2019-02-11T20:28:18.790Z,12.43
2019-02-11T20:30:48.208Z,10.33
2019-02-11T20:33:17.519Z,12.27
2019-02-11T20:35:46.882Z,12.60
2019-02-11T20:38:16.227Z,9.63
2019-02-11T20:40:45.559Z,13.97
2019-02-11T20:43:14.876Z,11.03
2019-02-11T20:45:44.218Z,10.83
2019-02-11T20:48:12.870Z,10.90
2019-02-11T20:50:41.412Z,12.97
2019-02-11T20:53:10.724Z,10.07
2019-02-11T20:55:40.051Z,11.43
2019-02-11T20:58:09.365Z,9.60
2019-02-11T21:00:38.691Z,11.10
2019-02-11T21:03:08.722Z,8.63
2019-02-11T21:05:57.247Z,10.10
2019-02-11T21:08:26.562Z,13.27
2019-02-11T21:10:54.986Z,7.87
2019-02-11T21:13:24.311Z,8.73
2019-02-11T21:15:53.321Z,14.03
2019-02-11T21:18:21.843Z,9.70
2019-02-11T21:20:51.159Z,12.93
2019-02-11T21:23:20.465Z,8.30
2019-02-11T21:25:50.015Z,10.30
2019-02-11T21:28:19.318Z,11.10
2019-02-11T21:33:55.218Z,10.90
2019-02-11T21:36:24.563Z,9.43
2019-02-11T21:38:53.890Z,10.97
2019-02-11T21:41:23.198Z,9.77
2019-02-11T21:43:52.519Z,8.20
2019-02-11T21:46:21.827Z,8.70
2019-02-11T21:48:51.139Z,10.50
2019-02-11T21:51:20.461Z,8.13
2019-02-11T21:53:49.783Z,10.40
2019-02-11T21:56:19.107Z,10.07
2019-02-11T22:01:30.430Z,11.10
2019-02-11T22:03:59.748Z,12.53
2019-02-11T22:06:28.264Z,13.03
2019-02-11T22:11:59.298Z,10.87
2019-02-11T22:14:27.797Z,11.13
2019-02-11T22:16:57.117Z,11.60
2019-02-11T22:19:26.435Z,12.83
2019-02-11T22:21:55.762Z,12.87
2019-02-11T22:24:25.074Z,9.83
2019-02-11T22:26:54.394Z,13.23
2019-02-11T22:29:23.711Z,12.13
2019-02-11T22:31:53.039Z,15.17
2019-02-11T22:34:22.373Z,12.27
2019-02-11T22:36:51.695Z,10.43
2019-02-11T22:39:21.013Z,15.50
2019-02-11T22:41:49.621Z,13.63
2019-02-11T22:44:18.136Z,13.80
2019-02-11T22:46:47.458Z,10.33
2019-02-11T22:49:16.778Z,13.33
2019-02-11T22:51:46.103Z,10.43
2019-02-11T22:54:15.417Z,10.60
2019-02-11T22:56:44.741Z,10.27
2019-02-11T22:59:14.102Z,10.53
2019-02-11T23:01:43.410Z,16.67
2019-02-11T23:04:11.926Z,13.90
2019-02-11T23:06:40.447Z,9.73
2019-02-11T23:09:12.627Z,10.97
2019-02-11T23:11:41.146Z,9.40
2019-02-11T23:14:10.478Z,14.17
2019-02-11T23:16:39.809Z,11.30
2019-02-11T23:19:09.119Z,12.40
2019-02-11T23:21:38.426Z,8.50
2019-02-11T23:27:10.147Z,10.10
2019-02-11T23:29:39.464Z,11.40
2019-02-11T23:32:08.785Z,11.73
2019-02-11T23:34:38.097Z,16.10
2019-02-11T23:37:07.426Z,9.77
2019-02-11T23:39:36.739Z,9.27
2019-02-11T23:42:05.257Z,17.80
2019-02-11T23:44:34.583Z,10.60
2019-02-11T23:47:03.899Z,12.37
2019-02-11T23:49:33.224Z,11.67
2019-02-11T23:52:02.663Z,13.07
2019-02-11T23:54:32.109Z,13.27
2019-02-11T23:57:01.427Z,10.33
2019-02-11T23:59:30.834Z,11.37
